07:42
Airports
History
Links
Donate
Help keep this website running!
PayPal
Bitcoin
This page is community maintained. The information is intended for PC simulator navigation or reference.
Always use approved charts for navigation.
22D
BandelUpdated 21-May-2014
Bandel (22D)
Eighty Four, Pennsylvania, United States (15330)
4
Lat/Lng:40° 7' 50.3" N / 80° 5' 46.1" W
40.130639 / -80.096139
Elevation:1210'ft / 369mMSL
Declination:W007°
ID / ICAO:22D
FAA:22D
Runways:1
Longest:01-19
Grass 628m / 2,059ft
(Edited 2014-05-21) [ Sign in to Edit ]
Nearby Weather07:12 GMT 2018-02-25
Nearby weather at KAFJ, Washington County located 10.3 nautical miles from 22D
Altimeter: 29.83
Visibility: 8.0 statute miles
Wind: 0 knots (from 000°)
Temp: 11°c / 52°f
Humidity: 100.0%

METAR: KAFJ 250712Z AUTO 00000KT 8SM -RA SCT004 BKN050 OVC100 11/11 A2983 RMK AO2 P0000

(Powered by phpweather)
Nearby VORs <50NM
Nearby NDBs
Runway 01 / 19
Dimensions:627.6 x 25.6m 2059' x 84'ft
Surface:Grass
Runway 01 [A]Runway 19 [B]
Heading:010°MH  003°TH190°MH   183°TH
Lat:
Lng:
40° 7' 40"N
80° 5' 46.9"W
40° 8' 0.51"N
80° 5' 45.5"W
User Notes and Comments
40° 7' 50.3" N / 80° 5' 46.1" W
Distance To
Airport ID:
Nearby Airports
4 Home Safe 3.7 NM
PS87 ESE 117°
4 Gregg 3.8 NM
5G5 NNW 334°
(R) Horne 3.9 NM
PN95 ESE 122°
(U) Finleyville Airpark 9.1 NM
G05 NNE 29°
(U) Washington County 10.3 NM
KAFJ ( WX ) W 272°
(U) Rostraver 15.0 NM
KFWQ ENE 68°
(U) Greene County 16.0 NM
KWAY S 186°
VFR Chart
Flight Planning at SkyVector.com